sensor_id;sensor_type;location;lat;lon;timestamp;temperature;humidity
69281;SHT31;56392;51.082;17.080;2024-03-08T00:04:23;1.04;80.35
69281;SHT31;56392;51.082;17.080;2024-03-08T00:09:46;0.96;80.69
69281;SHT31;56392;51.082;17.080;2024-03-08T00:15:09;0.92;81.06
69281;SHT31;56392;51.082;17.080;2024-03-08T00:20:37;0.86;81.33
69281;SHT31;56392;51.082;17.080;2024-03-08T00:26:00;0.81;81.21
69281;SHT31;56392;51.082;17.080;2024-03-08T00:31:25;0.75;81.39
69281;SHT31;56392;51.082;17.080;2024-03-08T00:36:50;0.66;81.56
69281;SHT31;56392;51.082;17.080;2024-03-08T00:42:14;0.57;81.93
69281;SHT31;56392;51.082;17.080;2024-03-08T00:47:37;0.48;82.45
69281;SHT31;56392;51.082;17.080;2024-03-08T00:53:01;0.42;82.44
69281;SHT31;56392;51.082;17.080;2024-03-08T00:58:26;0.38;82.86
69281;SHT31;56392;51.082;17.080;2024-03-08T01:03:50;0.32;82.88
69281;SHT31;56392;51.082;17.080;2024-03-08T01:09:14;0.22;82.94
69281;SHT31;56392;51.082;17.080;2024-03-08T01:14:39;0.09;83.68
69281;SHT31;56392;51.082;17.080;2024-03-08T01:20:02;0.04;83.99
69281;SHT31;56392;51.082;17.080;2024-03-08T01:25:29;0.06;84.12
69281;SHT31;56392;51.082;17.080;2024-03-08T01:30:53;-0.03;84.27
69281;SHT31;56392;51.082;17.080;2024-03-08T01:36:18;-0.03;84.32
69281;SHT31;56392;51.082;17.080;2024-03-08T01:41:43;0.01;84.45
69281;SHT31;56392;51.082;17.080;2024-03-08T01:47:06;-0.01;84.43
69281;SHT31;56392;51.082;17.080;2024-03-08T01:52:30;-0.03;84.39
69281;SHT31;56392;51.082;17.080;2024-03-08T01:57:55;-0.13;84.32
69281;SHT31;56392;51.082;17.080;2024-03-08T02:03:19;-0.21;84.48
69281;SHT31;56392;51.082;17.080;2024-03-08T02:08:43;-0.22;84.62
69281;SHT31;56392;51.082;17.080;2024-03-08T02:14:08;-0.28;84.74
69281;SHT31;56392;51.082;17.080;2024-03-08T02:19:32;-0.44;84.88
69281;SHT31;56392;51.082;17.080;2024-03-08T02:25:00;-0.51;85.30
69281;SHT31;56392;51.082;17.080;2024-03-08T02:30:23;-0.61;85.69
69281;SHT31;56392;51.082;17.080;2024-03-08T02:35:51;-0.61;85.76
69281;SHT31;56392;51.082;17.080;2024-03-08T02:41:16;-0.64;85.91
69281;SHT31;56392;51.082;17.080;2024-03-08T02:46:39;-0.69;86.20
69281;SHT31;56392;51.082;17.080;2024-03-08T02:52:03;-0.75;86.15
69281;SHT31;56392;51.082;17.080;2024-03-08T02:57:27;-0.75;86.07
69281;SHT31;56392;51.082;17.080;2024-03-08T03:02:51;-0.72;86.11
69281;SHT31;56392;51.082;17.080;2024-03-08T03:08:15;-0.76;86.66
69281;SHT31;56392;51.082;17.080;2024-03-08T03:13:40;-0.73;86.34
69281;SHT31;56392;51.082;17.080;2024-03-08T03:19:04;-0.78;86.65
69281;SHT31;56392;51.082;17.080;2024-03-08T03:24:27;-0.72;86.44
69281;SHT31;56392;51.082;17.080;2024-03-08T03:29:52;-0.79;86.53
69281;SHT31;56392;51.082;17.080;2024-03-08T03:35:17;-0.92;86.59
69281;SHT31;56392;51.082;17.080;2024-03-08T03:40:42;-0.99;86.72
69281;SHT31;56392;51.082;17.080;2024-03-08T03:46:08;-0.97;86.84
69281;SHT31;56392;51.082;17.080;2024-03-08T03:51:32;-1.02;86.76
69281;SHT31;56392;51.082;17.080;2024-03-08T03:56:55;-1.06;86.91
69281;SHT31;56392;51.082;17.080;2024-03-08T04:02:19;-1.10;87.24
69281;SHT31;56392;51.082;17.080;2024-03-08T04:07:42;-1.12;87.67
69281;SHT31;56392;51.082;17.080;2024-03-08T04:13:06;-1.16;87.58
69281;SHT31;56392;51.082;17.080;2024-03-08T04:18:33;-1.17;87.43
69281;SHT31;56392;51.082;17.080;2024-03-08T04:23:57;-1.23;87.66
69281;SHT31;56392;51.082;17.080;2024-03-08T04:29:20;-1.29;87.48
69281;SHT31;56392;51.082;17.080;2024-03-08T04:34:45;-1.27;87.90
69281;SHT31;56392;51.082;17.080;2024-03-08T04:40:08;-1.29;88.03
69281;SHT31;56392;51.082;17.080;2024-03-08T04:45:31;-1.34;87.91
69281;SHT31;56392;51.082;17.080;2024-03-08T04:50:56;-1.30;87.81
69281;SHT31;56392;51.082;17.080;2024-03-08T04:56:19;-1.37;87.62
69281;SHT31;56392;51.082;17.080;2024-03-08T05:01:44;-1.43;88.22
69281;SHT31;56392;51.082;17.080;2024-03-08T05:07:09;-1.46;88.39
69281;SHT31;56392;51.082;17.080;2024-03-08T05:12:32;-1.44;88.21
69281;SHT31;56392;51.082;17.080;2024-03-08T05:17:55;-1.41;88.10
69281;SHT31;56392;51.082;17.080;2024-03-08T05:23:21;-1.40;87.98
69281;SHT31;56392;51.082;17.080;2024-03-08T05:28:44;-1.43;88.30
69281;SHT31;56392;51.082;17.080;2024-03-08T05:34:07;-1.40;88.31
69281;SHT31;56392;51.082;17.080;2024-03-08T05:39:33;-1.32;88.21
69281;SHT31;56392;51.082;17.080;2024-03-08T05:44:56;-1.19;87.78
69281;SHT31;56392;51.082;17.080;2024-03-08T05:50:20;-0.96;87.40
69281;SHT31;56392;51.082;17.080;2024-03-08T05:55:47;-1.00;87.07
69281;SHT31;56392;51.082;17.080;2024-03-08T06:01:11;-0.86;86.85
69281;SHT31;56392;51.082;17.080;2024-03-08T06:06:34;-0.73;86.41
69281;SHT31;56392;51.082;17.080;2024-03-08T06:12:03;-0.57;85.96
69281;SHT31;56392;51.082;17.080;2024-03-08T06:17:28;-0.32;85.51
69281;SHT31;56392;51.082;17.080;2024-03-08T06:22:51;-0.09;84.64
69281;SHT31;56392;51.082;17.080;2024-03-08T06:28:18;0.15;84.13
69281;SHT31;56392;51.082;17.080;2024-03-08T06:33:41;0.40;83.08
69281;SHT31;56392;51.082;17.080;2024-03-08T06:39:04;0.62;82.40
69281;SHT31;56392;51.082;17.080;2024-03-08T06:44:32;0.64;81.80
69281;SHT31;56392;51.082;17.080;2024-03-08T06:49:57;0.93;81.06
69281;SHT31;56392;51.082;17.080;2024-03-08T06:55:22;0.91;80.14
69281;SHT31;56392;51.082;17.080;2024-03-08T07:00:47;1.17;79.83
69281;SHT31;56392;51.082;17.080;2024-03-08T07:06:13;1.46;78.86
69281;SHT31;56392;51.082;17.080;2024-03-08T07:11:37;1.81;78.37
69281;SHT31;56392;51.082;17.080;2024-03-08T07:17:02;2.36;76.80
69281;SHT31;56392;51.082;17.080;2024-03-08T07:22:25;2.60;75.37
69281;SHT31;56392;51.082;17.080;2024-03-08T07:27:48;2.97;74.53
69281;SHT31;56392;51.082;17.080;2024-03-08T07:33:13;5.67;67.92
69281;SHT31;56392;51.082;17.080;2024-03-08T07:38:36;10.61;54.12
69281;SHT31;56392;51.082;17.080;2024-03-08T07:43:59;13.54;45.17
69281;SHT31;56392;51.082;17.080;2024-03-08T07:49:27;14.33;40.58
69281;SHT31;56392;51.082;17.080;2024-03-08T07:54:50;15.59;41.04
69281;SHT31;56392;51.082;17.080;2024-03-08T08:00:14;12.51;45.87
69281;SHT31;56392;51.082;17.080;2024-03-08T08:05:40;9.36;53.05
69281;SHT31;56392;51.082;17.080;2024-03-08T08:11:03;7.00;58.51
69281;SHT31;56392;51.082;17.080;2024-03-08T08:16:30;7.21;59.41
69281;SHT31;56392;51.082;17.080;2024-03-08T08:21:55;7.29;60.16
69281;SHT31;56392;51.082;17.080;2024-03-08T08:27:19;7.70;58.61
69281;SHT31;56392;51.082;17.080;2024-03-08T08:32:42;7.56;58.32
69281;SHT31;56392;51.082;17.080;2024-03-08T08:38:06;7.11;59.74
69281;SHT31;56392;51.082;17.080;2024-03-08T08:43:30;6.87;61.14
69281;SHT31;56392;51.082;17.080;2024-03-08T08:48:55;7.36;59.76
69281;SHT31;56392;51.082;17.080;2024-03-08T08:54:19;7.32;59.94
69281;SHT31;56392;51.082;17.080;2024-03-08T08:59:43;7.86;57.54
69281;SHT31;56392;51.082;17.080;2024-03-08T09:05:07;8.75;55.74
69281;SHT31;56392;51.082;17.080;2024-03-08T09:10:32;8.27;57.10
69281;SHT31;56392;51.082;17.080;2024-03-08T09:15:55;7.95;58.65
69281;SHT31;56392;51.082;17.080;2024-03-08T09:21:18;7.82;59.59
69281;SHT31;56392;51.082;17.080;2024-03-08T09:26:46;7.19;59.86
69281;SHT31;56392;51.082;17.080;2024-03-08T09:32:09;6.91;60.75
69281;SHT31;56392;51.082;17.080;2024-03-08T09:37:33;7.51;59.73
69281;SHT31;56392;51.082;17.080;2024-03-08T09:42:58;7.53;58.94
69281;SHT31;56392;51.082;17.080;2024-03-08T09:48:22;7.16;59.69
69281;SHT31;56392;51.082;17.080;2024-03-08T09:53:45;7.28;59.07
69281;SHT31;56392;51.082;17.080;2024-03-08T09:59:10;6.92;59.35
69281;SHT31;56392;51.082;17.080;2024-03-08T10:05:05;7.42;59.31
69281;SHT31;56392;51.082;17.080;2024-03-08T10:10:28;7.58;58.69
69281;SHT31;56392;51.082;17.080;2024-03-08T10:15:52;7.43;58.29
69281;SHT31;56392;51.082;17.080;2024-03-08T10:21:24;7.32;58.08
69281;SHT31;56392;51.082;17.080;2024-03-08T10:26:47;7.23;58.18
69281;SHT31;56392;51.082;17.080;2024-03-08T10:32:11;7.16;57.43
69281;SHT31;56392;51.082;17.080;2024-03-08T10:37:40;6.84;58.44
69281;SHT31;56392;51.082;17.080;2024-03-08T10:43:12;7.33;57.74
69281;SHT31;56392;51.082;17.080;2024-03-08T10:48:40;7.42;56.90
69281;SHT31;56392;51.082;17.080;2024-03-08T10:54:06;7.41;55.54
69281;SHT31;56392;51.082;17.080;2024-03-08T10:59:30;7.23;54.68
69281;SHT31;56392;51.082;17.080;2024-03-08T11:04:55;7.39;53.23
69281;SHT31;56392;51.082;17.080;2024-03-08T11:10:21;7.32;54.87
69281;SHT31;56392;51.082;17.080;2024-03-08T11:15:46;7.19;53.80
69281;SHT31;56392;51.082;17.080;2024-03-08T11:21:11;7.38;54.66
69281;SHT31;56392;51.082;17.080;2024-03-08T11:26:36;7.59;54.50
69281;SHT31;56392;51.082;17.080;2024-03-08T11:32:04;7.32;51.60
69281;SHT31;56392;51.082;17.080;2024-03-08T11:37:28;7.28;53.34
69281;SHT31;56392;51.082;17.080;2024-03-08T11:42:53;7.12;52.63
69281;SHT31;56392;51.082;17.080;2024-03-08T11:48:17;6.97;53.14
69281;SHT31;56392;51.082;17.080;2024-03-08T11:53:40;6.87;52.64
69281;SHT31;56392;51.082;17.080;2024-03-08T11:59:05;7.01;52.88
69281;SHT31;56392;51.082;17.080;2024-03-08T12:04:28;7.11;54.96
69281;SHT31;56392;51.082;17.080;2024-03-08T12:10:16;7.29;52.76
69281;SHT31;56392;51.082;17.080;2024-03-08T12:15:41;7.26;53.66
69281;SHT31;56392;51.082;17.080;2024-03-08T12:21:06;7.11;53.92
69281;SHT31;56392;51.082;17.080;2024-03-08T12:26:30;7.00;53.86
69281;SHT31;56392;51.082;17.080;2024-03-08T12:31:57;7.18;54.21
69281;SHT31;56392;51.082;17.080;2024-03-08T12:37:22;7.38;54.25
69281;SHT31;56392;51.082;17.080;2024-03-08T12:42:46;7.45;52.38
69281;SHT31;56392;51.082;17.080;2024-03-08T12:48:13;7.62;52.78
69281;SHT31;56392;51.082;17.080;2024-03-08T12:53:37;7.56;53.04
69281;SHT31;56392;51.082;17.080;2024-03-08T12:59:03;7.29;52.98
69281;SHT31;56392;51.082;17.080;2024-03-08T13:04:28;7.32;53.26
69281;SHT31;56392;51.082;17.080;2024-03-08T13:09:53;7.35;53.31
69281;SHT31;56392;51.082;17.080;2024-03-08T13:15:21;7.15;53.88
69281;SHT31;56392;51.082;17.080;2024-03-08T13:20:46;7.29;54.05
69281;SHT31;56392;51.082;17.080;2024-03-08T13:26:14;7.33;53.91
69281;SHT31;56392;51.082;17.080;2024-03-08T13:31:39;7.49;54.13
69281;SHT31;56392;51.082;17.080;2024-03-08T13:37:03;7.55;54.17
69281;SHT31;56392;51.082;17.080;2024-03-08T13:42:29;7.48;53.61
69281;SHT31;56392;51.082;17.080;2024-03-08T13:47:54;7.53;54.63
69281;SHT31;56392;51.082;17.080;2024-03-08T13:53:19;7.53;54.17
69281;SHT31;56392;51.082;17.080;2024-03-08T13:58:42;7.43;54.71
69281;SHT31;56392;51.082;17.080;2024-03-08T14:04:06;7.46;54.51
69281;SHT31;56392;51.082;17.080;2024-03-08T14:09:34;7.51;54.86
69281;SHT31;56392;51.082;17.080;2024-03-08T14:14:59;7.46;54.38
69281;SHT31;56392;51.082;17.080;2024-03-08T14:20:23;7.49;54.79
69281;SHT31;56392;51.082;17.080;2024-03-08T14:25:50;7.49;54.72
69281;SHT31;56392;51.082;17.080;2024-03-08T14:31:14;7.48;55.50
69281;SHT31;56392;51.082;17.080;2024-03-08T14:36:40;7.59;55.54
69281;SHT31;56392;51.082;17.080;2024-03-08T14:42:05;7.49;55.05
69281;SHT31;56392;51.082;17.080;2024-03-08T14:47:30;7.52;55.80
69281;SHT31;56392;51.082;17.080;2024-03-08T14:52:55;7.48;55.52
69281;SHT31;56392;51.082;17.080;2024-03-08T14:58:20;7.46;55.85
69281;SHT31;56392;51.082;17.080;2024-03-08T15:03:44;7.53;55.74
69281;SHT31;56392;51.082;17.080;2024-03-08T15:09:07;7.58;55.79
69281;SHT31;56392;51.082;17.080;2024-03-08T15:14:39;7.49;56.39
69281;SHT31;56392;51.082;17.080;2024-03-08T15:20:08;7.45;56.67
69281;SHT31;56392;51.082;17.080;2024-03-08T15:25:38;7.36;56.90
69281;SHT31;56392;51.082;17.080;2024-03-08T15:31:09;7.33;57.20
69281;SHT31;56392;51.082;17.080;2024-03-08T15:36:32;7.28;57.68
69281;SHT31;56392;51.082;17.080;2024-03-08T15:41:56;7.18;57.67
69281;SHT31;56392;51.082;17.080;2024-03-08T15:47:21;7.08;58.02
69281;SHT31;56392;51.082;17.080;2024-03-08T15:52:45;7.04;58.39
69281;SHT31;56392;51.082;17.080;2024-03-08T15:58:08;6.97;59.24
69281;SHT31;56392;51.082;17.080;2024-03-08T16:03:35;6.85;61.76
69281;SHT31;56392;51.082;17.080;2024-03-08T16:09:03;6.74;62.02
69281;SHT31;56392;51.082;17.080;2024-03-08T16:14:36;6.53;63.83
69281;SHT31;56392;51.082;17.080;2024-03-08T16:20:03;6.42;64.24
69281;SHT31;56392;51.082;17.080;2024-03-08T16:25:32;6.34;64.71
69281;SHT31;56392;51.082;17.080;2024-03-08T16:30:57;6.16;65.33
69281;SHT31;56392;51.082;17.080;2024-03-08T16:36:21;6.05;66.33
69281;SHT31;56392;51.082;17.080;2024-03-08T16:41:45;5.88;66.99
69281;SHT31;56392;51.082;17.080;2024-03-08T16:47:10;5.74;67.40
69281;SHT31;56392;51.082;17.080;2024-03-08T16:52:37;5.55;68.35
69281;SHT31;56392;51.082;17.080;2024-03-08T16:58:00;5.29;69.30
69281;SHT31;56392;51.082;17.080;2024-03-08T17:03:26;5.16;70.02
69281;SHT31;56392;51.082;17.080;2024-03-08T17:08:53;4.95;71.00
69281;SHT31;56392;51.082;17.080;2024-03-08T17:14:16;4.90;70.78
69281;SHT31;56392;51.082;17.080;2024-03-08T17:19:40;4.55;71.86
69281;SHT31;56392;51.082;17.080;2024-03-08T17:25:05;4.20;73.33
69281;SHT31;56392;51.082;17.080;2024-03-08T17:30:30;3.93;74.76
69281;SHT31;56392;51.082;17.080;2024-03-08T17:35:54;3.86;75.23
69281;SHT31;56392;51.082;17.080;2024-03-08T17:41:19;4.01;74.69
69281;SHT31;56392;51.082;17.080;2024-03-08T17:46:44;4.07;74.31
69281;SHT31;56392;51.082;17.080;2024-03-08T17:52:09;4.08;74.04
69281;SHT31;56392;51.082;17.080;2024-03-08T17:57:34;3.69;75.13
69281;SHT31;56392;51.082;17.080;2024-03-08T18:02:57;3.38;75.91
69281;SHT31;56392;51.082;17.080;2024-03-08T18:08:20;3.19;76.41
69281;SHT31;56392;51.082;17.080;2024-03-08T18:13:45;3.00;77.13
69281;SHT31;56392;51.082;17.080;2024-03-08T18:19:09;2.87;77.56
69281;SHT31;56392;51.082;17.080;2024-03-08T18:24:36;2.74;78.37
69281;SHT31;56392;51.082;17.080;2024-03-08T18:30:01;2.64;78.66
69281;SHT31;56392;51.082;17.080;2024-03-08T18:35:26;2.70;78.80
69281;SHT31;56392;51.082;17.080;2024-03-08T18:40:49;2.60;79.07
69281;SHT31;56392;51.082;17.080;2024-03-08T18:46:15;2.40;79.59
69281;SHT31;56392;51.082;17.080;2024-03-08T18:51:39;2.26;80.73
69281;SHT31;56392;51.082;17.080;2024-03-08T18:57:06;2.13;81.56
69281;SHT31;56392;51.082;17.080;2024-03-08T19:02:31;2.02;81.68
69281;SHT31;56392;51.082;17.080;2024-03-08T19:07:56;1.92;81.76
69281;SHT31;56392;51.082;17.080;2024-03-08T19:13:19;1.82;81.92
69281;SHT31;56392;51.082;17.080;2024-03-08T19:18:44;1.74;82.62
69281;SHT31;56392;51.082;17.080;2024-03-08T19:24:07;1.67;83.10
69281;SHT31;56392;51.082;17.080;2024-03-08T19:29:33;1.60;83.38
69281;SHT31;56392;51.082;17.080;2024-03-08T19:34:58;1.55;83.68
69281;SHT31;56392;51.082;17.080;2024-03-08T19:40:23;1.53;83.76
69281;SHT31;56392;51.082;17.080;2024-03-08T19:45:47;1.46;83.55
69281;SHT31;56392;51.082;17.080;2024-03-08T19:51:14;1.51;83.73
69281;SHT31;56392;51.082;17.080;2024-03-08T19:56:40;1.44;83.96
69281;SHT31;56392;51.082;17.080;2024-03-08T20:02:06;1.37;84.17
69281;SHT31;56392;51.082;17.080;2024-03-08T20:07:31;1.33;84.39
69281;SHT31;56392;51.082;17.080;2024-03-08T20:12:55;1.33;84.51
69281;SHT31;56392;51.082;17.080;2024-03-08T20:18:19;1.27;84.62
69281;SHT31;56392;51.082;17.080;2024-03-08T20:23:46;1.26;84.61
69281;SHT31;56392;51.082;17.080;2024-03-08T20:29:11;1.30;84.61
69281;SHT31;56392;51.082;17.080;2024-03-08T20:34:34;1.47;84.16
69281;SHT31;56392;51.082;17.080;2024-03-08T20:39:58;1.65;83.03
69281;SHT31;56392;51.082;17.080;2024-03-08T20:45:23;1.79;82.09
69281;SHT31;56392;51.082;17.080;2024-03-08T20:50:47;1.85;81.65
69281;SHT31;56392;51.082;17.080;2024-03-08T20:56:13;1.89;81.35
69281;SHT31;56392;51.082;17.080;2024-03-08T21:01:37;1.95;80.76
69281;SHT31;56392;51.082;17.080;2024-03-08T21:07:02;1.91;80.80
69281;SHT31;56392;51.082;17.080;2024-03-08T21:12:29;1.94;80.61
69281;SHT31;56392;51.082;17.080;2024-03-08T21:17:55;1.88;80.51
69281;SHT31;56392;51.082;17.080;2024-03-08T21:23:20;1.86;80.07
69281;SHT31;56392;51.082;17.080;2024-03-08T21:28:45;1.82;80.29
69281;SHT31;56392;51.082;17.080;2024-03-08T21:34:08;1.79;80.20
69281;SHT31;56392;51.082;17.080;2024-03-08T21:39:32;1.81;80.03
69281;SHT31;56392;51.082;17.080;2024-03-08T21:45:02;1.71;80.11
69281;SHT31;56392;51.082;17.080;2024-03-08T21:50:26;1.70;80.36
69281;SHT31;56392;51.082;17.080;2024-03-08T21:55:51;1.57;80.84
69281;SHT31;56392;51.082;17.080;2024-03-08T22:01:18;1.50;80.95
69281;SHT31;56392;51.082;17.080;2024-03-08T22:06:41;1.48;80.96
69281;SHT31;56392;51.082;17.080;2024-03-08T22:12:11;1.43;81.42
69281;SHT31;56392;51.082;17.080;2024-03-08T22:17:36;1.37;81.34
69281;SHT31;56392;51.082;17.080;2024-03-08T22:23:00;1.36;81.59
69281;SHT31;56392;51.082;17.080;2024-03-08T22:28:23;1.34;81.67
69281;SHT31;56392;51.082;17.080;2024-03-08T22:33:48;1.29;81.87
69281;SHT31;56392;51.082;17.080;2024-03-08T22:39:13;1.31;81.48
69281;SHT31;56392;51.082;17.080;2024-03-08T22:44:36;1.33;81.80
69281;SHT31;56392;51.082;17.080;2024-03-08T22:50:02;1.30;81.71
69281;SHT31;56392;51.082;17.080;2024-03-08T22:55:26;1.17;82.10
69281;SHT31;56392;51.082;17.080;2024-03-08T23:00:49;1.16;82.26
69281;SHT31;56392;51.082;17.080;2024-03-08T23:06:25;1.12;82.49
69281;SHT31;56392;51.082;17.080;2024-03-08T23:11:48;1.04;82.71
69281;SHT31;56392;51.082;17.080;2024-03-08T23:17:11;1.04;83.18
69281;SHT31;56392;51.082;17.080;2024-03-08T23:22:37;0.97;82.94
69281;SHT31;56392;51.082;17.080;2024-03-08T23:28:06;0.95;84.10
69281;SHT31;56392;51.082;17.080;2024-03-08T23:33:29;1.02;83.69
69281;SHT31;56392;51.082;17.080;2024-03-08T23:38:54;1.07;83.96
69281;SHT31;56392;51.082;17.080;2024-03-08T23:44:19;1.15;83.47
69281;SHT31;56392;51.082;17.080;2024-03-08T23:49:42;1.20;83.37
69281;SHT31;56392;51.082;17.080;2024-03-08T23:55:08;1.19;83.33
